CheckWX is a tool to help pilots better visualize weather data.  It is not intended as a substitute for an official pre-flight weather briefing.

06:35:58 UTC

CWLI METAR
Liverpool Bay Airport
Canada
Current

36 mins ago

CWLI 220600Z AUTO 06011KT ////SM //// NCD M09/M09 A2984
Observed
Apr-22 @ 06:00 UTC
Wind
  • 060° at 11 KTS
Visibility
Cloud Levels
  • Clear skies
Temperature
-9°C / 16°F
Dewpoint
-9°C / 16°F
Humidity
100%
Altimeter
29.84" Hg
Pressure
1010.52 hPa
Previous

2 hours ago

CWLI 220500Z AUTO 08014KT ////SM //// NCD M07/M08 A2984
Observed
Apr-22 @ 05:00 UTC
Wind
  • 080° at 14 KTS
Visibility
Cloud Levels
  • Clear skies
Temperature
-7°C / 19°F
Dewpoint
-8°C / 18°F
Humidity
93%
Altimeter
29.84" Hg
Pressure
1010.52 hPa
Previous

3 hours ago

CWLI 220400Z AUTO 08014KT ////SM //// NCD M06/M06 A2984
Observed
Apr-22 @ 04:00 UTC
Wind
  • 080° at 14 KTS
Visibility
Cloud Levels
  • Clear skies
Temperature
-6°C / 21°F
Dewpoint
-6°C / 21°F
Humidity
100%
Altimeter
29.84" Hg
Pressure
1010.52 hPa